Portada
METAR-TAF:

METAR-TAF

Aeroports :

Devils Lake, Dakota del Nord, Estats Units d'Amèrica

latitud: 48-07N, longitud: 098-55W, altitud: 443 m

Observació

L'informe es va fer fa 37 minuts, a les 01:56 UTC
Vent 5 kt del Sud/Sud-Oest
Temperatura -20°C
Humitat 77%
Pressió 1037 hPa
Visibilitat: 16.1 km
Cel clar

METAR: KDVL 200156Z AUTO 21005KT 10SM CLR M20/M23 A3063 RMK AO2 SLP958 T12001228 FZRANO

Hora: 20:33 (02:33 UTC)

Pronòstic

L'informe es va fer fa 3 hores i 4 minuts, a les 23:29 UTC
Pronòstic vàlid del 20 a les 00 UTC al 20 a les 24 UTC
Vent 5 kt amb direcció variable
Visibilitat: 10 km
Cel clar
A partir de les 20 a les 0500 UTC
Vent 8 kt del Sud-Oest
Visibilitat: 10 km
Cel clar
A partir de les 20 a les 1100 UTC
Vent 13 kt del Sud-Oest
Visibilitat: 10 km
Cel clar

TAF: KDVL 192329Z 2000/2024 VRB05KT P6SM SKC FM200500 22008KT P6SM SKC FM201100 23013KT P6SM SKC

Observacions i pronòstics meteorològics de més de 4000 aeroports (METAR i TAF).

Les estacions disponibles són els punts grocs i vermells al mapa.

Posi el ratolí al punt desitjat per veure el nom de l'estació.

Feu clic per veure les observacions i els pronòstics meteorològics.

Per canviar el mapa: feu clic els botons verds amb una creu de color negre per apropar; al botó verd amb un guió per allunyar la imatge; o en les fletxes verdes per a mapes adjacents.


METAR-TAF: